createdAt,value
2019-05-25T00:02:13.684Z,3.90
2019-05-25T00:04:42.262Z,4.23
2019-05-25T00:07:10.846Z,4.47
2019-05-25T00:09:39.427Z,3.60
2019-05-25T00:12:08.018Z,3.80
2019-05-25T00:14:36.584Z,4.03
2019-05-25T00:17:05.234Z,3.90
2019-05-25T00:19:33.726Z,4.13
2019-05-25T00:22:02.318Z,3.80
2019-05-25T00:24:30.878Z,3.90
2019-05-25T00:26:59.472Z,3.73
2019-05-25T00:29:28.034Z,4.60
2019-05-25T00:31:56.541Z,4.50
2019-05-25T00:34:25.104Z,4.00
2019-05-25T00:36:53.686Z,4.60
2019-05-25T00:39:22.262Z,4.10
2019-05-25T00:41:50.928Z,4.47
2019-05-25T00:44:19.496Z,4.50
2019-05-25T00:46:48.077Z,4.73
2019-05-25T00:49:16.642Z,5.23
2019-05-25T00:51:45.163Z,5.10
2019-05-25T00:54:27.003Z,4.63
2019-05-25T00:56:44.090Z,4.50
2019-05-25T00:59:12.687Z,4.57
2019-05-25T01:01:41.269Z,5.00
2019-05-25T01:04:09.841Z,5.10
2019-05-25T01:06:38.428Z,5.53
2019-05-25T01:09:07.233Z,5.47
2019-05-25T01:11:35.830Z,6.13
2019-05-25T01:14:06.060Z,5.73
2019-05-25T01:16:34.642Z,5.50
2019-05-25T01:19:03.210Z,5.10
2019-05-25T01:21:32.469Z,5.20
2019-05-25T01:24:01.104Z,5.10
2019-05-25T01:26:29.697Z,5.60
2019-05-25T01:28:58.727Z,5.10
2019-05-25T01:31:27.313Z,5.80
2019-05-25T01:33:55.815Z,4.80
2019-05-25T01:36:24.411Z,5.70
2019-05-25T01:38:53.554Z,4.97
2019-05-25T01:41:22.145Z,5.20
2019-05-25T01:43:50.638Z,4.77
2019-05-25T01:46:19.238Z,5.30
2019-05-25T01:48:47.790Z,5.10
2019-05-25T01:51:16.373Z,6.40
2019-05-25T01:53:44.940Z,5.33
2019-05-25T01:56:13.525Z,5.13
2019-05-25T01:58:42.089Z,5.90
2019-05-25T02:01:10.669Z,5.30
2019-05-25T02:03:39.234Z,5.73
2019-05-25T02:06:07.874Z,5.73
2019-05-25T02:08:36.467Z,5.77
2019-05-25T02:11:05.073Z,6.07
2019-05-25T02:13:33.625Z,6.20
2019-05-25T02:16:02.164Z,6.03
2019-05-25T02:18:30.707Z,5.70
2019-05-25T02:20:59.278Z,6.90
2019-05-25T02:23:27.945Z,7.00
2019-05-25T02:25:56.453Z,5.93
2019-05-25T02:28:25.048Z,6.57
2019-05-25T02:30:53.615Z,6.70
2019-05-25T02:33:22.194Z,6.40
2019-05-25T02:35:50.751Z,6.57
2019-05-25T02:38:19.337Z,5.60
2019-05-25T02:40:47.898Z,6.37
2019-05-25T02:43:16.414Z,6.17
2019-05-25T02:45:45.078Z,6.10
2019-05-25T02:48:13.668Z,5.93
2019-05-25T02:50:42.231Z,5.73
2019-05-25T02:53:10.816Z,6.40
2019-05-25T02:55:39.386Z,6.23
2019-05-25T02:58:07.904Z,6.57
2019-05-25T03:00:36.901Z,6.50
2019-05-25T03:03:05.680Z,6.40
2019-05-25T03:05:34.388Z,6.63
2019-05-25T03:08:03.478Z,6.03
2019-05-25T03:10:32.606Z,6.47
2019-05-25T03:13:03.485Z,5.80
2019-05-25T03:15:32.187Z,6.97
2019-05-25T03:18:00.778Z,6.07
2019-05-25T03:20:29.279Z,6.37
2019-05-25T03:22:57.929Z,6.10
2019-05-25T03:25:26.421Z,5.67
2019-05-25T03:27:54.929Z,5.63
2019-05-25T03:30:31.746Z,5.63
2019-05-25T03:33:00.318Z,6.17
2019-05-25T03:35:29.931Z,6.10
2019-05-25T03:37:58.524Z,6.43
2019-05-25T03:40:27.188Z,6.23
2019-05-25T03:42:55.771Z,6.40
2019-05-25T03:45:24.341Z,6.87
2019-05-25T03:47:53.501Z,6.50
2019-05-25T03:50:22.066Z,6.70
2019-05-25T03:52:50.577Z,6.97
2019-05-25T03:55:19.077Z,7.20
2019-05-25T03:57:47.670Z,6.33
2019-05-25T04:00:16.698Z,7.53
2019-05-25T04:02:45.314Z,5.90
2019-05-25T04:05:13.883Z,6.63
2019-05-25T04:07:42.463Z,6.40
2019-05-25T04:10:11.032Z,6.03
2019-05-25T04:12:39.623Z,6.40
2019-05-25T04:15:08.514Z,6.10
2019-05-25T04:17:37.030Z,6.07
2019-05-25T04:20:06.836Z,6.03
2019-05-25T04:22:35.489Z,6.53
2019-05-25T04:25:05.105Z,6.37
2019-05-25T04:27:33.697Z,7.03
2019-05-25T04:30:02.275Z,6.70
2019-05-25T04:32:30.855Z,5.80
2019-05-25T04:34:59.417Z,6.97
2019-05-25T04:37:28.021Z,6.50
2019-05-25T04:39:56.581Z,5.90
2019-05-25T04:42:25.093Z,6.07
2019-05-25T04:44:53.587Z,5.30
2019-05-25T04:47:26.822Z,5.83
2019-05-25T04:49:52.378Z,6.33
2019-05-25T04:52:20.890Z,6.10
2019-05-25T04:54:49.449Z,5.30
2019-05-25T04:57:18.054Z,5.13
2019-05-25T04:59:46.627Z,4.77
2019-05-25T05:02:15.203Z,4.93
2019-05-25T05:04:43.768Z,6.03
2019-05-25T05:07:12.349Z,5.43
2019-05-25T05:09:40.917Z,5.97
2019-05-25T05:12:09.442Z,5.73
2019-05-25T05:14:37.989Z,4.87
2019-05-25T05:17:06.563Z,5.57
2019-05-25T05:19:35.145Z,5.77
2019-05-25T05:22:05.773Z,5.40
2019-05-25T05:24:33.968Z,5.30
2019-05-25T05:27:02.555Z,5.30
2019-05-25T05:29:31.156Z,5.43
2019-05-25T05:31:59.727Z,5.53
2019-05-25T05:34:28.310Z,5.57
2019-05-25T05:36:57.325Z,4.80
2019-05-25T05:39:26.550Z,4.93
2019-05-25T05:41:55.657Z,4.20
2019-05-25T05:44:26.743Z,4.00
2019-05-25T05:46:59.052Z,4.40
2019-05-25T05:49:29.402Z,4.20
2019-05-25T05:52:01.038Z,4.10
2019-05-25T05:54:31.069Z,4.60
2019-05-25T05:57:11.880Z,4.00
2019-05-25T05:59:31.622Z,3.80
2019-05-25T06:02:00.182Z,3.77
2019-05-25T06:04:28.703Z,4.20
2019-05-25T06:06:57.272Z,4.03
2019-05-25T06:09:25.857Z,4.13
2019-05-25T06:11:54.463Z,4.23
2019-05-25T06:14:23.050Z,4.37
2019-05-25T06:16:51.622Z,4.50
2019-05-25T06:19:20.210Z,3.87
2019-05-25T06:21:48.778Z,3.57
2019-05-25T06:24:17.357Z,3.57
2019-05-25T06:26:45.914Z,3.67
2019-05-25T06:29:14.511Z,3.10
2019-05-25T06:31:43.075Z,3.90
2019-05-25T06:34:11.655Z,3.17
2019-05-25T06:36:40.231Z,4.30
2019-05-25T06:39:08.997Z,3.10
2019-05-25T06:41:37.563Z,2.80
2019-05-25T06:44:06.308Z,3.30
2019-05-25T06:46:34.854Z,3.00
2019-05-25T06:49:03.444Z,3.00
2019-05-25T06:51:32.027Z,3.20
2019-05-25T06:54:00.617Z,2.57
2019-05-25T06:56:29.173Z,2.83
2019-05-25T06:58:57.765Z,3.07
2019-05-25T07:01:26.263Z,2.80
2019-05-25T07:03:55.118Z,3.20
2019-05-25T07:06:23.686Z,2.60
2019-05-25T07:08:52.211Z,2.57
2019-05-25T07:11:20.798Z,2.27
2019-05-25T07:13:49.483Z,2.87
2019-05-25T07:16:18.057Z,2.60
2019-05-25T07:18:46.647Z,2.30
2019-05-25T07:21:15.283Z,2.50
2019-05-25T07:23:43.866Z,3.93
2019-05-25T07:26:12.388Z,2.23
2019-05-25T07:28:41.618Z,2.83
2019-05-25T07:31:10.191Z,3.97
2019-05-25T07:33:38.777Z,2.53
2019-05-25T07:36:08.032Z,2.60
2019-05-25T07:38:36.749Z,2.50
2019-05-25T07:41:05.301Z,2.43
2019-05-25T07:43:33.891Z,2.33
2019-05-25T07:46:02.462Z,2.47
2019-05-25T07:48:31.058Z,2.37
2019-05-25T07:50:59.629Z,2.50
2019-05-25T07:53:28.122Z,3.27
2019-05-25T07:55:56.711Z,2.90
2019-05-25T07:58:25.300Z,3.07
2019-05-25T08:00:53.868Z,3.10
2019-05-25T08:03:22.452Z,2.90
2019-05-25T08:05:51.018Z,2.83
2019-05-25T08:08:19.586Z,2.50
2019-05-25T08:10:48.172Z,2.87
2019-05-25T08:13:16.830Z,3.00
2019-05-25T08:15:45.410Z,2.70
2019-05-25T08:18:13.976Z,2.87
2019-05-25T08:20:42.571Z,3.10
2019-05-25T08:23:11.135Z,3.20
2019-05-25T08:25:39.721Z,2.73
2019-05-25T08:28:08.351Z,2.80
2019-05-25T08:30:36.868Z,3.17
2019-05-25T08:33:05.500Z,4.00
2019-05-25T08:35:34.230Z,3.87
2019-05-25T08:38:02.797Z,15.33
2019-05-25T08:40:31.428Z,2.40
2019-05-25T08:42:59.989Z,3.40
2019-05-25T08:45:28.612Z,2.70
2019-05-25T08:47:57.560Z,3.20
2019-05-25T08:50:37.885Z,3.03
2019-05-25T08:52:56.513Z,2.40
2019-05-25T08:55:25.099Z,2.93
2019-05-25T08:57:53.669Z,3.00
2019-05-25T09:00:22.252Z,2.60
2019-05-25T09:02:50.813Z,2.63
2019-05-25T09:05:19.337Z,2.87
2019-05-25T09:07:47.920Z,3.20
2019-05-25T09:10:16.633Z,2.67
2019-05-25T09:12:45.144Z,2.80
2019-05-25T09:15:13.860Z,3.13
2019-05-25T09:17:42.419Z,3.27
2019-05-25T09:20:11.353Z,3.47
2019-05-25T09:22:40.122Z,3.20
2019-05-25T09:25:09.374Z,3.43
2019-05-25T09:27:38.020Z,3.53
2019-05-25T09:30:12.473Z,3.03
2019-05-25T09:32:42.748Z,3.20
2019-05-25T09:35:11.411Z,3.57
2019-05-25T09:37:40.142Z,3.43
2019-05-25T09:40:09.362Z,3.57
2019-05-25T09:42:38.694Z,2.87
2019-05-25T09:45:09.175Z,3.27
2019-05-25T09:47:37.799Z,3.60
2019-05-25T09:50:07.485Z,3.00
2019-05-25T09:52:36.039Z,3.07
2019-05-25T09:55:06.436Z,3.23
2019-05-25T09:57:35.070Z,4.03
2019-05-25T10:00:08.430Z,3.37
2019-05-25T10:02:37.073Z,2.60
2019-05-25T10:05:07.394Z,2.80
2019-05-25T10:07:35.965Z,2.93
2019-05-25T10:10:06.502Z,3.10
2019-05-25T10:12:35.162Z,3.10
2019-05-25T10:15:05.015Z,3.33
2019-05-25T10:17:33.581Z,3.10
2019-05-25T10:20:02.193Z,3.30
2019-05-25T10:22:30.758Z,3.50
2019-05-25T10:24:59.277Z,3.40
2019-05-25T10:27:27.844Z,4.37
2019-05-25T10:29:56.428Z,3.47
2019-05-25T10:32:24.991Z,3.70
2019-05-25T10:34:53.577Z,3.70
2019-05-25T10:37:22.150Z,3.70
2019-05-25T10:39:50.747Z,3.70
2019-05-25T10:42:19.294Z,3.90
2019-05-25T10:44:47.877Z,3.80
2019-05-25T10:47:16.514Z,4.23
2019-05-25T10:49:45.094Z,3.93
2019-05-25T10:52:13.589Z,3.90
2019-05-25T10:54:42.226Z,3.83
2019-05-25T10:57:13.243Z,3.90
2019-05-25T10:59:52.327Z,5.00
2019-05-25T11:02:11.267Z,3.97
2019-05-25T11:04:39.838Z,3.97
2019-05-25T11:07:08.413Z,4.23
2019-05-25T11:09:36.987Z,4.53
2019-05-25T11:12:05.584Z,4.50
2019-05-25T11:14:34.158Z,4.70
2019-05-25T11:17:02.815Z,3.93
2019-05-25T11:19:31.393Z,4.47
2019-05-25T11:21:59.970Z,4.10
2019-05-25T11:24:28.546Z,4.43
2019-05-25T11:26:59.673Z,4.17
2019-05-25T11:29:27.334Z,3.83
2019-05-25T11:32:00.762Z,3.67
2019-05-25T11:34:26.141Z,4.17
2019-05-25T11:36:54.731Z,3.87
2019-05-25T11:39:23.295Z,3.70
2019-05-25T11:41:51.882Z,3.77
2019-05-25T11:44:20.532Z,4.40
2019-05-25T11:46:49.040Z,4.77
2019-05-25T11:49:22.456Z,4.43
2019-05-25T11:51:47.838Z,4.77
2019-05-25T11:54:16.471Z,3.60
2019-05-25T11:56:45.052Z,4.17
2019-05-25T11:59:13.610Z,4.50
2019-05-25T12:01:42.189Z,4.60
2019-05-25T12:04:10.755Z,3.80
2019-05-25T12:06:39.333Z,3.77
2019-05-25T12:09:08.523Z,4.27
2019-05-25T12:11:37.190Z,4.30
2019-05-25T12:14:05.818Z,3.30
2019-05-25T12:16:34.414Z,3.23
2019-05-25T12:19:02.991Z,3.67
2019-05-25T12:21:31.569Z,4.83
2019-05-25T12:24:00.057Z,3.70
2019-05-25T12:26:28.570Z,3.13
2019-05-25T12:28:57.200Z,3.40
2019-05-25T12:31:25.786Z,3.20
2019-05-25T12:33:54.432Z,3.20
2019-05-25T12:36:23.025Z,3.53
2019-05-25T12:38:51.585Z,3.20
2019-05-25T12:41:20.098Z,3.60
2019-05-25T12:43:48.585Z,2.80
2019-05-25T12:46:17.101Z,3.40
2019-05-25T12:48:45.664Z,3.00
2019-05-25T12:51:17.599Z,3.10
2019-05-25T12:53:44.459Z,3.07
2019-05-25T12:56:13.060Z,3.53
2019-05-25T12:58:41.638Z,4.80
2019-05-25T13:01:10.224Z,3.73
2019-05-25T13:03:38.784Z,3.40
2019-05-25T13:06:07.367Z,4.40
2019-05-25T13:08:35.926Z,4.43
2019-05-25T13:11:04.446Z,4.83
2019-05-25T13:13:32.935Z,3.70
2019-05-25T13:16:01.521Z,3.87
2019-05-25T13:18:30.005Z,4.10
2019-05-25T13:20:58.514Z,3.90
2019-05-25T13:23:27.076Z,4.30
2019-05-25T13:25:55.670Z,4.57
2019-05-25T13:28:24.232Z,4.10
2019-05-25T13:30:52.812Z,5.07
2019-05-25T13:33:21.382Z,4.40
2019-05-25T13:35:49.968Z,4.03
2019-05-25T13:38:18.532Z,3.90
2019-05-25T13:40:47.111Z,3.90
2019-05-25T13:43:15.673Z,3.67
2019-05-25T13:45:46.121Z,4.10
2019-05-25T13:48:14.409Z,4.53
2019-05-25T13:50:43.565Z,5.03
2019-05-25T13:53:12.057Z,3.87
2019-05-25T13:55:40.617Z,4.57
2019-05-25T13:58:09.199Z,4.70
2019-05-25T14:00:37.699Z,4.10
2019-05-25T14:03:06.355Z,4.43
2019-05-25T14:05:34.855Z,4.83
2019-05-25T14:08:03.438Z,4.57
2019-05-25T14:10:31.926Z,4.30
2019-05-25T14:13:00.509Z,4.00
2019-05-25T14:15:29.077Z,3.80
2019-05-25T14:17:57.781Z,4.47
2019-05-25T14:20:26.355Z,4.13
2019-05-25T14:22:54.953Z,4.23
2019-05-25T14:25:23.582Z,4.30
2019-05-25T14:27:52.187Z,4.57
2019-05-25T14:30:23.044Z,4.17
2019-05-25T14:32:51.630Z,4.33
2019-05-25T14:35:20.145Z,3.80
2019-05-25T14:37:48.773Z,3.87
2019-05-25T14:40:17.905Z,4.00
2019-05-25T14:42:46.482Z,3.50
2019-05-25T14:45:15.214Z,3.23
2019-05-25T14:47:43.799Z,3.73
2019-05-25T14:50:12.513Z,3.80
2019-05-25T14:52:43.212Z,3.47
2019-05-25T14:55:11.896Z,4.07
2019-05-25T14:57:40.450Z,4.27
2019-05-25T15:00:10.210Z,3.40
2019-05-25T15:02:38.727Z,3.77
2019-05-25T15:05:07.621Z,3.40
2019-05-25T15:07:36.133Z,3.80
2019-05-25T15:10:07.707Z,3.20
2019-05-25T15:12:36.303Z,3.23
2019-05-25T15:15:06.514Z,3.83
2019-05-25T15:17:37.270Z,3.10
2019-05-25T15:20:09.627Z,2.83
2019-05-25T15:22:38.217Z,3.00
2019-05-25T15:25:08.822Z,3.40
2019-05-25T15:27:38.456Z,3.50
2019-05-25T15:30:07.905Z,3.33
2019-05-25T15:32:36.438Z,3.00
2019-05-25T15:35:08.041Z,2.87
2019-05-25T15:37:36.626Z,3.43
2019-05-25T15:40:10.174Z,3.87
2019-05-25T15:42:38.862Z,3.13
2019-05-25T15:45:09.225Z,3.10
2019-05-25T15:47:37.829Z,3.27
2019-05-25T15:50:11.070Z,3.20
2019-05-25T15:52:40.964Z,3.00
2019-05-25T15:55:09.795Z,3.00
2019-05-25T15:57:38.373Z,3.40
2019-05-25T16:00:11.801Z,3.40
2019-05-25T16:02:41.360Z,3.00
2019-05-25T16:05:10.462Z,2.77
2019-05-25T16:07:42.166Z,2.53
2019-05-25T16:10:10.942Z,3.20
2019-05-25T16:12:39.528Z,2.60
2019-05-25T16:15:09.748Z,2.70
2019-05-25T16:17:39.092Z,2.50
2019-05-25T16:20:07.890Z,2.50
2019-05-25T16:22:36.416Z,2.60
2019-05-25T16:25:07.009Z,2.57
2019-05-25T16:27:35.514Z,2.60
2019-05-25T16:30:06.319Z,2.87
2019-05-25T16:32:34.901Z,2.87
2019-05-25T16:35:04.281Z,3.60
2019-05-25T16:37:32.904Z,2.70
2019-05-25T16:40:01.593Z,2.83
2019-05-25T16:42:30.173Z,2.67
2019-05-25T16:44:58.675Z,2.50
2019-05-25T16:47:27.271Z,2.60
2019-05-25T16:49:55.830Z,2.20
2019-05-25T16:52:24.338Z,2.90
2019-05-25T16:54:52.825Z,2.90
2019-05-25T16:57:21.492Z,2.70
2019-05-25T16:59:50.057Z,2.93
2019-05-25T17:02:18.642Z,2.90
2019-05-25T17:04:47.211Z,2.67
2019-05-25T17:07:15.798Z,3.30
2019-05-25T17:09:44.374Z,2.90
2019-05-25T17:12:12.973Z,3.00
2019-05-25T17:14:41.539Z,2.70
2019-05-25T17:17:10.162Z,2.97
2019-05-25T17:19:38.689Z,2.70
2019-05-25T17:22:07.294Z,2.70
2019-05-25T17:24:35.869Z,2.97
2019-05-25T17:27:04.578Z,2.20
2019-05-25T17:29:33.158Z,2.50
2019-05-25T17:32:01.667Z,2.43
2019-05-25T17:34:30.233Z,2.90
2019-05-25T17:36:58.798Z,2.87
2019-05-25T17:39:27.381Z,3.43
2019-05-25T17:41:55.877Z,3.03
2019-05-25T17:44:24.457Z,3.30
2019-05-25T17:46:53.028Z,3.10
2019-05-25T17:49:21.614Z,2.67
2019-05-25T17:51:50.356Z,3.17
2019-05-25T17:54:18.946Z,2.37
2019-05-25T17:56:47.507Z,2.60
2019-05-25T17:59:16.093Z,3.10
2019-05-25T18:01:44.666Z,2.60
2019-05-25T18:04:13.262Z,2.63
2019-05-25T18:06:41.817Z,2.70
2019-05-25T18:09:10.394Z,3.10
2019-05-25T18:11:38.967Z,2.57
2019-05-25T18:14:07.702Z,2.80
2019-05-25T18:16:36.262Z,3.10
2019-05-25T18:19:04.988Z,2.53
2019-05-25T18:21:33.552Z,2.93
2019-05-25T18:24:02.135Z,2.50
2019-05-25T18:26:30.706Z,2.83
2019-05-25T18:28:59.292Z,2.60
2019-05-25T18:31:27.892Z,2.53
2019-05-25T18:33:56.465Z,2.90
2019-05-25T18:36:25.039Z,2.40
2019-05-25T18:38:53.629Z,2.60
2019-05-25T18:41:22.185Z,2.67
2019-05-25T18:43:50.693Z,2.30
2019-05-25T18:46:19.329Z,2.43
2019-05-25T18:48:47.922Z,2.40
2019-05-25T18:51:16.486Z,2.50
2019-05-25T18:53:45.084Z,2.47
2019-05-25T18:56:13.661Z,2.63
2019-05-25T18:58:42.232Z,2.87
2019-05-25T19:01:10.793Z,2.80
2019-05-25T19:03:39.318Z,2.70
2019-05-25T19:06:07.874Z,2.87
2019-05-25T19:08:36.387Z,2.60
2019-05-25T19:11:04.954Z,2.80
2019-05-25T19:13:33.535Z,2.90
2019-05-25T19:16:02.109Z,2.97
2019-05-25T19:18:30.787Z,2.57
2019-05-25T19:20:59.361Z,2.87
2019-05-25T19:23:27.945Z,2.77
2019-05-25T19:25:56.521Z,2.77
2019-05-25T19:28:25.101Z,2.60
2019-05-25T19:30:53.718Z,2.70
2019-05-25T19:33:22.225Z,2.53
2019-05-25T19:35:54.029Z,2.60
2019-05-25T19:38:21.022Z,2.70
2019-05-25T19:40:49.590Z,3.07
2019-05-25T19:43:18.178Z,2.40
2019-05-25T19:45:47.502Z,3.07
2019-05-25T19:48:16.145Z,2.80
2019-05-25T19:50:44.707Z,2.63
2019-05-25T19:53:13.289Z,3.23
2019-05-25T19:55:41.934Z,2.97
2019-05-25T19:58:10.530Z,3.27
2019-05-25T20:00:39.093Z,3.60
2019-05-25T20:03:07.663Z,3.73
2019-05-25T20:05:36.260Z,3.77
2019-05-25T20:08:04.885Z,4.00
2019-05-25T20:10:33.420Z,3.97
2019-05-25T20:13:01.992Z,4.50
2019-05-25T20:15:30.583Z,4.00
2019-05-25T20:17:59.303Z,3.70
2019-05-25T20:20:27.969Z,3.70
2019-05-25T20:22:56.466Z,3.60
2019-05-25T20:25:25.089Z,3.50
2019-05-25T20:27:53.619Z,3.93
2019-05-25T20:30:22.278Z,3.30
2019-05-25T20:32:51.037Z,4.03
2019-05-25T20:35:32.467Z,3.73
2019-05-25T20:37:49.759Z,3.93
2019-05-25T20:40:18.390Z,4.37
2019-05-25T20:42:46.948Z,4.03
2019-05-25T20:45:15.614Z,4.60
2019-05-25T20:47:44.844Z,4.73
2019-05-25T20:50:13.858Z,4.50
2019-05-25T20:52:42.426Z,4.00
2019-05-25T20:55:11.173Z,3.90
2019-05-25T20:57:39.744Z,4.50
2019-05-25T21:00:10.234Z,3.87
2019-05-25T21:02:38.830Z,4.30
2019-05-25T21:05:07.600Z,3.97
2019-05-25T21:07:36.093Z,4.37
2019-05-25T21:10:09.221Z,4.03
2019-05-25T21:12:37.773Z,4.40
2019-05-25T21:15:07.889Z,4.00
2019-05-25T21:17:36.381Z,4.13
2019-05-25T21:20:08.466Z,4.27
2019-05-25T21:22:37.208Z,5.10
2019-05-25T21:25:10.364Z,4.20
2019-05-25T21:27:38.933Z,4.60
2019-05-25T21:30:08.916Z,4.33
2019-05-25T21:32:37.625Z,3.90
2019-05-25T21:35:07.550Z,5.27
2019-05-25T21:37:36.194Z,4.50
2019-05-25T21:40:09.496Z,4.30
2019-05-25T21:42:38.087Z,3.97
2019-05-25T21:45:07.696Z,4.37
2019-05-25T21:47:36.264Z,4.33
2019-05-25T21:50:06.966Z,4.63
2019-05-25T21:52:35.695Z,4.40
2019-05-25T21:55:04.813Z,4.87
2019-05-25T21:57:33.318Z,7.20
2019-05-25T22:00:01.914Z,13.70
2019-05-25T22:02:30.475Z,15.50
2019-05-25T22:04:59.065Z,13.03
2019-05-25T22:07:27.631Z,15.80
2019-05-25T22:09:56.223Z,15.53
2019-05-25T22:12:24.797Z,13.03
2019-05-25T22:14:53.309Z,15.67
2019-05-25T22:17:21.803Z,10.83
2019-05-25T22:19:50.317Z,8.53
2019-05-25T22:22:18.822Z,7.50
2019-05-25T22:24:47.342Z,7.67
2019-05-25T22:27:15.914Z,5.97
2019-05-25T22:29:44.492Z,6.10
2019-05-25T22:32:13.134Z,6.43
2019-05-25T22:34:41.721Z,7.27
2019-05-25T22:37:10.304Z,10.17
2019-05-25T22:39:38.899Z,11.33
2019-05-25T22:42:07.398Z,11.63
2019-05-25T22:44:35.991Z,10.43
2019-05-25T22:47:04.618Z,9.37
2019-05-25T22:49:33.139Z,9.47
2019-05-25T22:52:01.697Z,8.80
2019-05-25T22:54:30.290Z,9.57
2019-05-25T22:56:58.871Z,8.90
2019-05-25T22:59:27.470Z,9.03
2019-05-25T23:01:56.049Z,9.53
2019-05-25T23:04:24.631Z,9.00
2019-05-25T23:06:57.932Z,9.70
2019-05-25T23:09:23.438Z,9.47
2019-05-25T23:11:52.377Z,9.33
2019-05-25T23:14:20.902Z,9.60
2019-05-25T23:16:49.479Z,9.13
2019-05-25T23:19:18.059Z,9.10
2019-05-25T23:21:46.643Z,7.97
2019-05-25T23:24:15.233Z,8.20
2019-05-25T23:26:43.794Z,8.53
2019-05-25T23:29:12.290Z,7.50
2019-05-25T23:31:40.882Z,7.77
2019-05-25T23:34:09.450Z,8.17
2019-05-25T23:36:38.045Z,7.93
2019-05-25T23:39:06.976Z,7.97
2019-05-25T23:41:35.569Z,7.83
2019-05-25T23:44:04.214Z,7.70
2019-05-25T23:46:32.801Z,8.67
2019-05-25T23:49:01.540Z,7.03
2019-05-25T23:51:30.142Z,8.03
2019-05-25T23:53:58.717Z,8.17
2019-05-25T23:56:27.302Z,7.77
2019-05-25T23:58:55.883Z,6.97
